Aérodrome :
LOGIN :

S'inscrire | Disclaimer

   EN    FR    IT 

 










Légende :    VFR   VFR Marginal   IFR   IFR Intensif   IFR Très Intensif
Visi : 
Plafond : 
>= 8 km
>= 3000ft
5 à 8 km
1000 à 3000 ft
1500m à 5 km
500 à 1000 ft
800 à 1500m
200 à 500 ft
< 800m
< 200 ft
Symboles :   Orages  Brouillard  Fortes neiges  Fortes précipitations  Vent > 20 kt
SIGMETs :   Divers  Orages  Givrage  Turbulence  Onde Orograph.  Cendres Volcan.






- Altitude de l'aérodrome : 50 ft
- Code IATA : KOI


EGPA - Kirkwall

DERNIER METAR :
  • 311020Z AUTO 16019KT 9999 NCD 15/10 Q1028

METARs EXPIRÉS :
  • 310950Z AUTO 16020KT 9999 NCD 14/10 Q1028
  • 310920Z AUTO 16019KT 9999 NCD 14/10 Q1028
  • 310850Z AUTO 17019KT 9999 NCD 13/10 Q1028
  • 310820Z AUTO 16020KT 9999 NCD 13/09 Q1028
  • 310750Z AUTO 16020KT 9999 NCD 13/09 Q1028
  • 310720Z AUTO 17020KT 9999 NCD 13/09 Q1028

TAF TAF EGPA
Valide du 31 à 09h jusqu'au 31 à 18h UTC


310800Z 3109/3118 15015KT CAVOK
TEMPO 3109/3112 16018G28KT



MET'MAP, la Météo Aéronautique d'un coup d'oeil ! - Copyright ORBIFLY Décembre 2007 - Disclaimer

ORBIFLY MET'MAP TEAM :

Programmation & Développement : Alexandra Zaïnal
Sur une idée originale de : Baudouin d'Aumeries
Assistance à la programmation : Marc-Olivier Méhu
Soutien technique & logistique : Manuel Goepfert

Contact : metmap@orbifly.com




SOURCES & CREDITS :

   NOAA